sensor_id;sensor_type;location;lat;lon;timestamp;P1;durP1;ratioP1;P2;durP2;ratioP2
16510;SDS011;8368;48.772;8.754;2024-01-30T00:00:14;3.00;;;2.80;;
16510;SDS011;8368;48.772;8.754;2024-01-30T00:02:40;3.27;;;2.97;;
16510;SDS011;8368;48.772;8.754;2024-01-30T00:05:08;3.43;;;2.67;;
16510;SDS011;8368;48.772;8.754;2024-01-30T00:07:33;2.77;;;2.57;;
16510;SDS011;8368;48.772;8.754;2024-01-30T00:09:59;4.13;;;3.13;;
16510;SDS011;8368;48.772;8.754;2024-01-30T00:12:24;4.13;;;2.80;;
16510;SDS011;8368;48.772;8.754;2024-01-30T00:14:51;3.23;;;2.93;;
16510;SDS011;8368;48.772;8.754;2024-01-30T00:17:16;3.17;;;2.87;;
16510;SDS011;8368;48.772;8.754;2024-01-30T00:19:41;4.10;;;2.93;;
16510;SDS011;8368;48.772;8.754;2024-01-30T00:22:07;4.93;;;3.27;;
16510;SDS011;8368;48.772;8.754;2024-01-30T00:24:33;3.30;;;2.97;;
16510;SDS011;8368;48.772;8.754;2024-01-30T00:26:58;2.97;;;2.70;;
16510;SDS011;8368;48.772;8.754;2024-01-30T00:29:24;4.23;;;3.10;;
16510;SDS011;8368;48.772;8.754;2024-01-30T00:31:50;4.57;;;3.10;;
16510;SDS011;8368;48.772;8.754;2024-01-30T00:34:16;6.33;;;4.00;;
16510;SDS011;8368;48.772;8.754;2024-01-30T00:36:41;4.23;;;3.67;;
16510;SDS011;8368;48.772;8.754;2024-01-30T00:39:07;6.70;;;3.83;;
16510;SDS011;8368;48.772;8.754;2024-01-30T00:41:34;8.73;;;3.90;;
16510;SDS011;8368;48.772;8.754;2024-01-30T00:43:59;4.93;;;3.53;;
16510;SDS011;8368;48.772;8.754;2024-01-30T00:46:25;6.77;;;3.90;;
16510;SDS011;8368;48.772;8.754;2024-01-30T00:48:50;4.00;;;2.90;;
16510;SDS011;8368;48.772;8.754;2024-01-30T00:51:16;5.00;;;3.20;;
16510;SDS011;8368;48.772;8.754;2024-01-30T00:53:41;4.43;;;3.03;;
16510;SDS011;8368;48.772;8.754;2024-01-30T00:56:07;5.53;;;3.20;;
16510;SDS011;8368;48.772;8.754;2024-01-30T00:58:33;4.87;;;3.33;;
16510;SDS011;8368;48.772;8.754;2024-01-30T01:00:58;6.40;;;3.73;;
16510;SDS011;8368;48.772;8.754;2024-01-30T01:03:24;6.73;;;3.50;;
16510;SDS011;8368;48.772;8.754;2024-01-30T01:05:50;6.10;;;3.10;;
16510;SDS011;8368;48.772;8.754;2024-01-30T01:08:15;4.90;;;2.97;;
16510;SDS011;8368;48.772;8.754;2024-01-30T01:10:41;4.10;;;2.90;;
16510;SDS011;8368;48.772;8.754;2024-01-30T01:13:06;3.80;;;2.70;;
16510;SDS011;8368;48.772;8.754;2024-01-30T01:15:32;3.03;;;2.70;;
16510;SDS011;8368;48.772;8.754;2024-01-30T01:17:57;3.33;;;3.00;;
16510;SDS011;8368;48.772;8.754;2024-01-30T01:20:23;4.53;;;3.20;;
16510;SDS011;8368;48.772;8.754;2024-01-30T01:22:48;3.60;;;3.30;;
16510;SDS011;8368;48.772;8.754;2024-01-30T01:25:14;4.33;;;3.30;;
16510;SDS011;8368;48.772;8.754;2024-01-30T01:27:39;4.50;;;3.27;;
16510;SDS011;8368;48.772;8.754;2024-01-30T01:30:09;4.87;;;3.30;;
16510;SDS011;8368;48.772;8.754;2024-01-30T01:32:36;4.47;;;3.40;;
16510;SDS011;8368;48.772;8.754;2024-01-30T01:35:03;3.63;;;3.20;;
16510;SDS011;8368;48.772;8.754;2024-01-30T01:37:30;2.90;;;2.60;;
16510;SDS011;8368;48.772;8.754;2024-01-30T01:39:56;4.23;;;3.00;;
16510;SDS011;8368;48.772;8.754;2024-01-30T01:42:21;3.70;;;2.70;;
16510;SDS011;8368;48.772;8.754;2024-01-30T01:44:47;2.83;;;2.40;;
16510;SDS011;8368;48.772;8.754;2024-01-30T01:47:13;3.03;;;2.73;;
16510;SDS011;8368;48.772;8.754;2024-01-30T01:49:39;6.43;;;2.90;;
16510;SDS011;8368;48.772;8.754;2024-01-30T01:52:05;3.40;;;2.70;;
16510;SDS011;8368;48.772;8.754;2024-01-30T01:54:32;4.20;;;2.53;;
16510;SDS011;8368;48.772;8.754;2024-01-30T01:56:58;3.30;;;2.73;;
16510;SDS011;8368;48.772;8.754;2024-01-30T01:59:24;4.53;;;3.03;;
16510;SDS011;8368;48.772;8.754;2024-01-30T02:01:50;4.03;;;3.10;;
16510;SDS011;8368;48.772;8.754;2024-01-30T02:04:18;4.57;;;3.03;;
16510;SDS011;8368;48.772;8.754;2024-01-30T02:06:43;6.13;;;3.53;;
16510;SDS011;8368;48.772;8.754;2024-01-30T02:09:09;4.00;;;3.10;;
16510;SDS011;8368;48.772;8.754;2024-01-30T02:11:34;3.17;;;2.87;;
16510;SDS011;8368;48.772;8.754;2024-01-30T02:14:03;3.63;;;2.90;;
16510;SDS011;8368;48.772;8.754;2024-01-30T02:16:29;3.90;;;3.47;;
16510;SDS011;8368;48.772;8.754;2024-01-30T02:18:55;3.23;;;2.80;;
16510;SDS011;8368;48.772;8.754;2024-01-30T02:21:21;3.60;;;2.80;;
16510;SDS011;8368;48.772;8.754;2024-01-30T02:23:46;3.20;;;2.90;;
16510;SDS011;8368;48.772;8.754;2024-01-30T02:26:13;3.97;;;3.00;;
16510;SDS011;8368;48.772;8.754;2024-01-30T02:28:38;6.83;;;3.03;;
16510;SDS011;8368;48.772;8.754;2024-01-30T02:31:04;2.53;;;2.33;;
16510;SDS011;8368;48.772;8.754;2024-01-30T02:33:30;4.10;;;2.67;;
16510;SDS011;8368;48.772;8.754;2024-01-30T02:35:56;3.67;;;2.50;;
16510;SDS011;8368;48.772;8.754;2024-01-30T02:38:21;2.67;;;2.47;;
16510;SDS011;8368;48.772;8.754;2024-01-30T02:40:48;4.90;;;2.83;;
16510;SDS011;8368;48.772;8.754;2024-01-30T02:43:13;2.90;;;2.60;;
16510;SDS011;8368;48.772;8.754;2024-01-30T02:45:39;2.97;;;2.60;;
16510;SDS011;8368;48.772;8.754;2024-01-30T02:48:05;4.50;;;2.47;;
16510;SDS011;8368;48.772;8.754;2024-01-30T02:50:31;2.40;;;2.23;;
16510;SDS011;8368;48.772;8.754;2024-01-30T02:52:56;5.50;;;2.83;;
16510;SDS011;8368;48.772;8.754;2024-01-30T02:55:22;2.93;;;2.73;;
16510;SDS011;8368;48.772;8.754;2024-01-30T02:57:47;3.20;;;3.00;;
16510;SDS011;8368;48.772;8.754;2024-01-30T03:00:13;5.77;;;3.10;;
16510;SDS011;8368;48.772;8.754;2024-01-30T03:02:39;3.70;;;3.40;;
16510;SDS011;8368;48.772;8.754;2024-01-30T03:05:05;3.23;;;2.97;;
16510;SDS011;8368;48.772;8.754;2024-01-30T03:07:31;5.10;;;2.67;;
16510;SDS011;8368;48.772;8.754;2024-01-30T03:09:56;7.70;;;3.23;;
16510;SDS011;8368;48.772;8.754;2024-01-30T03:12:22;4.53;;;2.67;;
16510;SDS011;8368;48.772;8.754;2024-01-30T03:14:47;3.80;;;2.63;;
16510;SDS011;8368;48.772;8.754;2024-01-30T03:17:14;2.63;;;2.43;;
16510;SDS011;8368;48.772;8.754;2024-01-30T03:19:40;2.60;;;2.40;;
16510;SDS011;8368;48.772;8.754;2024-01-30T03:22:05;2.30;;;2.07;;
16510;SDS011;8368;48.772;8.754;2024-01-30T03:24:31;4.10;;;2.90;;
16510;SDS011;8368;48.772;8.754;2024-01-30T03:26:56;2.90;;;2.50;;
16510;SDS011;8368;48.772;8.754;2024-01-30T03:29:22;2.23;;;2.13;;
16510;SDS011;8368;48.772;8.754;2024-01-30T03:31:47;2.53;;;2.30;;
16510;SDS011;8368;48.772;8.754;2024-01-30T03:34:13;5.10;;;3.00;;
16510;SDS011;8368;48.772;8.754;2024-01-30T03:36:38;4.47;;;2.93;;
16510;SDS011;8368;48.772;8.754;2024-01-30T03:39:04;3.67;;;3.03;;
16510;SDS011;8368;48.772;8.754;2024-01-30T03:41:31;6.30;;;3.23;;
16510;SDS011;8368;48.772;8.754;2024-01-30T03:43:56;4.17;;;3.00;;
16510;SDS011;8368;48.772;8.754;2024-01-30T03:46:22;3.40;;;3.03;;
16510;SDS011;8368;48.772;8.754;2024-01-30T03:48:47;2.77;;;2.53;;
16510;SDS011;8368;48.772;8.754;2024-01-30T03:51:13;2.80;;;2.60;;
16510;SDS011;8368;48.772;8.754;2024-01-30T03:53:43;3.27;;;2.47;;
16510;SDS011;8368;48.772;8.754;2024-01-30T03:56:09;2.43;;;2.13;;
16510;SDS011;8368;48.772;8.754;2024-01-30T03:58:34;2.33;;;2.17;;
16510;SDS011;8368;48.772;8.754;2024-01-30T04:01:00;3.67;;;2.00;;
16510;SDS011;8368;48.772;8.754;2024-01-30T04:03:26;2.73;;;2.50;;
16510;SDS011;8368;48.772;8.754;2024-01-30T04:05:52;3.50;;;1.83;;
16510;SDS011;8368;48.772;8.754;2024-01-30T04:08:18;2.03;;;1.93;;
16510;SDS011;8368;48.772;8.754;2024-01-30T04:10:43;4.33;;;2.33;;
16510;SDS011;8368;48.772;8.754;2024-01-30T04:13:09;2.33;;;2.20;;
16510;SDS011;8368;48.772;8.754;2024-01-30T04:15:35;2.63;;;2.43;;
16510;SDS011;8368;48.772;8.754;2024-01-30T04:18:00;4.37;;;2.47;;
16510;SDS011;8368;48.772;8.754;2024-01-30T04:20:26;1.90;;;1.80;;
16510;SDS011;8368;48.772;8.754;2024-01-30T04:22:51;4.13;;;2.50;;
16510;SDS011;8368;48.772;8.754;2024-01-30T04:25:17;2.60;;;2.40;;
16510;SDS011;8368;48.772;8.754;2024-01-30T04:27:42;4.20;;;2.40;;
16510;SDS011;8368;48.772;8.754;2024-01-30T04:30:08;3.77;;;2.60;;
16510;SDS011;8368;48.772;8.754;2024-01-30T04:32:35;3.23;;;2.73;;
16510;SDS011;8368;48.772;8.754;2024-01-30T04:35:01;3.00;;;2.67;;
16510;SDS011;8368;48.772;8.754;2024-01-30T04:37:26;2.63;;;2.33;;
16510;SDS011;8368;48.772;8.754;2024-01-30T04:39:52;3.07;;;1.97;;
16510;SDS011;8368;48.772;8.754;2024-01-30T04:42:18;6.20;;;2.23;;
16510;SDS011;8368;48.772;8.754;2024-01-30T04:44:43;2.57;;;2.27;;
16510;SDS011;8368;48.772;8.754;2024-01-30T04:47:09;2.17;;;2.07;;
16510;SDS011;8368;48.772;8.754;2024-01-30T04:49:36;2.40;;;2.30;;
16510;SDS011;8368;48.772;8.754;2024-01-30T04:52:06;2.33;;;2.17;;
16510;SDS011;8368;48.772;8.754;2024-01-30T04:54:32;2.63;;;2.33;;
16510;SDS011;8368;48.772;8.754;2024-01-30T04:56:58;5.57;;;3.07;;
16510;SDS011;8368;48.772;8.754;2024-01-30T04:59:23;6.77;;;3.10;;
16510;SDS011;8368;48.772;8.754;2024-01-30T05:01:49;5.10;;;3.03;;
16510;SDS011;8368;48.772;8.754;2024-01-30T05:04:14;10.17;;;3.50;;
16510;SDS011;8368;48.772;8.754;2024-01-30T05:06:40;9.00;;;4.00;;
16510;SDS011;8368;48.772;8.754;2024-01-30T05:09:06;15.47;;;4.30;;
16510;SDS011;8368;48.772;8.754;2024-01-30T05:11:31;17.37;;;5.50;;
16510;SDS011;8368;48.772;8.754;2024-01-30T05:14:05;20.60;;;6.77;;
16510;SDS011;8368;48.772;8.754;2024-01-30T05:16:31;16.90;;;6.60;;
16510;SDS011;8368;48.772;8.754;2024-01-30T05:18:57;23.83;;;7.47;;
16510;SDS011;8368;48.772;8.754;2024-01-30T05:21:23;13.23;;;5.27;;
16510;SDS011;8368;48.772;8.754;2024-01-30T05:23:49;15.10;;;5.27;;
16510;SDS011;8368;48.772;8.754;2024-01-30T05:26:14;12.57;;;4.47;;
16510;SDS011;8368;48.772;8.754;2024-01-30T05:28:40;6.77;;;4.13;;
16510;SDS011;8368;48.772;8.754;2024-01-30T05:31:05;7.27;;;3.53;;
16510;SDS011;8368;48.772;8.754;2024-01-30T05:33:31;6.97;;;3.67;;
16510;SDS011;8368;48.772;8.754;2024-01-30T05:35:56;5.60;;;3.53;;
16510;SDS011;8368;48.772;8.754;2024-01-30T05:38:22;5.23;;;3.80;;
16510;SDS011;8368;48.772;8.754;2024-01-30T05:40:47;6.87;;;4.40;;
16510;SDS011;8368;48.772;8.754;2024-01-30T05:43:13;5.33;;;3.90;;
16510;SDS011;8368;48.772;8.754;2024-01-30T05:45:38;5.60;;;3.70;;
16510;SDS011;8368;48.772;8.754;2024-01-30T05:48:04;4.83;;;3.23;;
16510;SDS011;8368;48.772;8.754;2024-01-30T05:50:30;5.67;;;3.97;;
16510;SDS011;8368;48.772;8.754;2024-01-30T05:52:56;4.77;;;3.77;;
16510;SDS011;8368;48.772;8.754;2024-01-30T05:55:21;6.13;;;3.73;;
16510;SDS011;8368;48.772;8.754;2024-01-30T05:57:47;4.20;;;3.43;;
16510;SDS011;8368;48.772;8.754;2024-01-30T06:00:13;3.57;;;3.07;;
16510;SDS011;8368;48.772;8.754;2024-01-30T06:02:39;6.90;;;3.77;;
16510;SDS011;8368;48.772;8.754;2024-01-30T06:05:04;4.83;;;3.77;;
16510;SDS011;8368;48.772;8.754;2024-01-30T06:07:30;4.07;;;3.53;;
16510;SDS011;8368;48.772;8.754;2024-01-30T06:09:56;3.60;;;3.33;;
16510;SDS011;8368;48.772;8.754;2024-01-30T06:12:21;3.80;;;3.47;;
16510;SDS011;8368;48.772;8.754;2024-01-30T06:14:47;3.07;;;2.70;;
16510;SDS011;8368;48.772;8.754;2024-01-30T06:17:12;3.20;;;2.90;;
16510;SDS011;8368;48.772;8.754;2024-01-30T06:19:38;3.43;;;2.87;;
16510;SDS011;8368;48.772;8.754;2024-01-30T06:22:04;4.77;;;3.23;;
16510;SDS011;8368;48.772;8.754;2024-01-30T06:24:30;4.43;;;3.07;;
16510;SDS011;8368;48.772;8.754;2024-01-30T06:26:56;4.90;;;3.10;;
16510;SDS011;8368;48.772;8.754;2024-01-30T06:29:21;5.47;;;4.27;;
16510;SDS011;8368;48.772;8.754;2024-01-30T06:31:49;5.73;;;5.13;;
16510;SDS011;8368;48.772;8.754;2024-01-30T06:34:15;7.03;;;4.50;;
16510;SDS011;8368;48.772;8.754;2024-01-30T06:36:40;4.93;;;3.80;;
16510;SDS011;8368;48.772;8.754;2024-01-30T06:39:06;4.07;;;3.10;;
16510;SDS011;8368;48.772;8.754;2024-01-30T06:41:32;3.13;;;2.90;;
16510;SDS011;8368;48.772;8.754;2024-01-30T06:43:58;3.10;;;2.80;;
16510;SDS011;8368;48.772;8.754;2024-01-30T06:46:23;4.97;;;3.20;;
16510;SDS011;8368;48.772;8.754;2024-01-30T06:48:49;2.73;;;2.50;;
16510;SDS011;8368;48.772;8.754;2024-01-30T06:51:14;2.97;;;2.10;;
16510;SDS011;8368;48.772;8.754;2024-01-30T06:53:40;2.60;;;2.40;;
16510;SDS011;8368;48.772;8.754;2024-01-30T06:56:05;3.20;;;2.90;;
16510;SDS011;8368;48.772;8.754;2024-01-30T06:58:31;4.90;;;2.80;;
16510;SDS011;8368;48.772;8.754;2024-01-30T07:00:57;3.30;;;3.00;;
16510;SDS011;8368;48.772;8.754;2024-01-30T07:03:23;10.83;;;4.97;;
16510;SDS011;8368;48.772;8.754;2024-01-30T07:05:49;5.83;;;3.40;;
16510;SDS011;8368;48.772;8.754;2024-01-30T07:08:17;3.63;;;3.30;;
16510;SDS011;8368;48.772;8.754;2024-01-30T07:10:43;3.10;;;2.50;;
16510;SDS011;8368;48.772;8.754;2024-01-30T07:13:09;2.80;;;2.60;;
16510;SDS011;8368;48.772;8.754;2024-01-30T07:15:37;3.17;;;2.47;;
16510;SDS011;8368;48.772;8.754;2024-01-30T07:18:03;2.87;;;2.67;;
16510;SDS011;8368;48.772;8.754;2024-01-30T07:20:29;3.53;;;3.23;;
16510;SDS011;8368;48.772;8.754;2024-01-30T07:22:56;4.13;;;3.17;;
16510;SDS011;8368;48.772;8.754;2024-01-30T07:25:25;4.27;;;3.57;;
16510;SDS011;8368;48.772;8.754;2024-01-30T07:27:52;8.87;;;4.80;;
16510;SDS011;8368;48.772;8.754;2024-01-30T07:30:18;15.50;;;6.63;;
16510;SDS011;8368;48.772;8.754;2024-01-30T07:32:45;14.33;;;6.93;;
16510;SDS011;8368;48.772;8.754;2024-01-30T07:35:11;11.73;;;6.57;;
16510;SDS011;8368;48.772;8.754;2024-01-30T07:37:37;15.33;;;6.23;;
16510;SDS011;8368;48.772;8.754;2024-01-30T07:40:03;4.50;;;3.90;;
16510;SDS011;8368;48.772;8.754;2024-01-30T07:42:29;9.77;;;3.73;;
16510;SDS011;8368;48.772;8.754;2024-01-30T07:44:54;3.97;;;3.53;;
16510;SDS011;8368;48.772;8.754;2024-01-30T07:47:20;4.60;;;3.67;;
16510;SDS011;8368;48.772;8.754;2024-01-30T07:49:46;4.93;;;3.97;;
16510;SDS011;8368;48.772;8.754;2024-01-30T07:52:12;5.03;;;4.40;;
16510;SDS011;8368;48.772;8.754;2024-01-30T07:54:37;6.13;;;5.13;;
16510;SDS011;8368;48.772;8.754;2024-01-30T07:57:04;7.03;;;5.40;;
16510;SDS011;8368;48.772;8.754;2024-01-30T07:59:30;5.93;;;5.20;;
16510;SDS011;8368;48.772;8.754;2024-01-30T08:01:55;8.80;;;4.97;;
16510;SDS011;8368;48.772;8.754;2024-01-30T08:04:21;6.10;;;4.87;;
16510;SDS011;8368;48.772;8.754;2024-01-30T08:06:46;5.40;;;4.90;;
16510;SDS011;8368;48.772;8.754;2024-01-30T08:09:12;6.40;;;5.80;;
16510;SDS011;8368;48.772;8.754;2024-01-30T08:11:37;7.93;;;6.33;;
16510;SDS011;8368;48.772;8.754;2024-01-30T08:14:03;7.73;;;6.43;;
16510;SDS011;8368;48.772;8.754;2024-01-30T08:16:28;6.10;;;5.50;;
16510;SDS011;8368;48.772;8.754;2024-01-30T08:18:54;7.93;;;6.23;;
16510;SDS011;8368;48.772;8.754;2024-01-30T08:21:22;7.50;;;6.43;;
16510;SDS011;8368;48.772;8.754;2024-01-30T08:23:48;7.17;;;6.10;;
16510;SDS011;8368;48.772;8.754;2024-01-30T08:26:13;8.27;;;5.87;;
16510;SDS011;8368;48.772;8.754;2024-01-30T08:28:39;8.30;;;7.17;;
16510;SDS011;8368;48.772;8.754;2024-01-30T08:31:04;15.00;;;7.97;;
16510;SDS011;8368;48.772;8.754;2024-01-30T08:33:30;12.40;;;8.40;;
16510;SDS011;8368;48.772;8.754;2024-01-30T08:35:55;18.03;;;8.40;;
16510;SDS011;8368;48.772;8.754;2024-01-30T08:38:21;14.60;;;8.20;;
16510;SDS011;8368;48.772;8.754;2024-01-30T08:40:46;13.83;;;8.00;;
16510;SDS011;8368;48.772;8.754;2024-01-30T08:43:12;10.27;;;6.67;;
16510;SDS011;8368;48.772;8.754;2024-01-30T08:45:37;10.57;;;6.27;;
16510;SDS011;8368;48.772;8.754;2024-01-30T08:48:03;8.53;;;5.07;;
16510;SDS011;8368;48.772;8.754;2024-01-30T08:50:29;5.53;;;4.73;;
16510;SDS011;8368;48.772;8.754;2024-01-30T08:52:54;6.20;;;4.47;;
16510;SDS011;8368;48.772;8.754;2024-01-30T08:55:21;4.60;;;3.83;;
16510;SDS011;8368;48.772;8.754;2024-01-30T08:57:47;3.70;;;3.40;;
16510;SDS011;8368;48.772;8.754;2024-01-30T09:00:12;7.33;;;3.33;;
16510;SDS011;8368;48.772;8.754;2024-01-30T09:02:38;3.63;;;3.20;;
16510;SDS011;8368;48.772;8.754;2024-01-30T09:05:04;3.50;;;3.20;;
16510;SDS011;8368;48.772;8.754;2024-01-30T09:07:29;4.07;;;3.63;;
16510;SDS011;8368;48.772;8.754;2024-01-30T09:09:55;3.70;;;3.40;;
16510;SDS011;8368;48.772;8.754;2024-01-30T09:12:20;5.77;;;3.53;;
16510;SDS011;8368;48.772;8.754;2024-01-30T09:14:46;5.70;;;3.53;;
16510;SDS011;8368;48.772;8.754;2024-01-30T09:17:12;3.53;;;2.97;;
16510;SDS011;8368;48.772;8.754;2024-01-30T09:19:38;4.07;;;3.77;;
16510;SDS011;8368;48.772;8.754;2024-01-30T09:22:03;3.97;;;3.30;;
16510;SDS011;8368;48.772;8.754;2024-01-30T09:24:29;4.03;;;3.60;;
16510;SDS011;8368;48.772;8.754;2024-01-30T09:26:54;4.77;;;3.67;;
16510;SDS011;8368;48.772;8.754;2024-01-30T09:29:20;3.33;;;3.03;;
16510;SDS011;8368;48.772;8.754;2024-01-30T09:31:46;3.63;;;3.33;;
16510;SDS011;8368;48.772;8.754;2024-01-30T09:34:12;2.80;;;2.60;;
16510;SDS011;8368;48.772;8.754;2024-01-30T09:36:38;2.93;;;2.70;;
16510;SDS011;8368;48.772;8.754;2024-01-30T09:39:04;2.50;;;2.30;;
16510;SDS011;8368;48.772;8.754;2024-01-30T09:41:32;5.23;;;2.73;;
16510;SDS011;8368;48.772;8.754;2024-01-30T09:43:59;2.93;;;2.73;;
16510;SDS011;8368;48.772;8.754;2024-01-30T09:46:27;4.07;;;3.00;;
16510;SDS011;8368;48.772;8.754;2024-01-30T09:48:55;4.13;;;3.00;;
16510;SDS011;8368;48.772;8.754;2024-01-30T09:51:23;3.50;;;3.20;;
16510;SDS011;8368;48.772;8.754;2024-01-30T09:53:49;3.60;;;3.30;;
16510;SDS011;8368;48.772;8.754;2024-01-30T09:56:15;4.97;;;3.87;;
16510;SDS011;8368;48.772;8.754;2024-01-30T09:58:41;3.57;;;3.20;;
16510;SDS011;8368;48.772;8.754;2024-01-30T10:01:07;3.10;;;2.90;;
16510;SDS011;8368;48.772;8.754;2024-01-30T10:03:32;3.27;;;3.03;;
16510;SDS011;8368;48.772;8.754;2024-01-30T10:05:58;2.97;;;2.60;;
16510;SDS011;8368;48.772;8.754;2024-01-30T10:08:26;2.77;;;2.50;;
16510;SDS011;8368;48.772;8.754;2024-01-30T10:10:51;5.43;;;2.50;;
16510;SDS011;8368;48.772;8.754;2024-01-30T10:13:17;2.43;;;2.20;;
16510;SDS011;8368;48.772;8.754;2024-01-30T10:15:43;2.93;;;2.63;;
16510;SDS011;8368;48.772;8.754;2024-01-30T10:18:10;2.10;;;2.00;;
16510;SDS011;8368;48.772;8.754;2024-01-30T10:20:35;2.70;;;2.13;;
16510;SDS011;8368;48.772;8.754;2024-01-30T10:23:01;2.67;;;2.53;;
16510;SDS011;8368;48.772;8.754;2024-01-30T10:25:28;3.00;;;2.60;;
16510;SDS011;8368;48.772;8.754;2024-01-30T10:27:54;2.90;;;2.70;;
16510;SDS011;8368;48.772;8.754;2024-01-30T10:30:20;3.47;;;2.73;;
16510;SDS011;8368;48.772;8.754;2024-01-30T10:32:46;3.90;;;3.60;;
16510;SDS011;8368;48.772;8.754;2024-01-30T10:35:12;3.10;;;2.90;;
16510;SDS011;8368;48.772;8.754;2024-01-30T10:37:38;2.90;;;2.73;;
16510;SDS011;8368;48.772;8.754;2024-01-30T10:40:04;2.90;;;2.23;;
16510;SDS011;8368;48.772;8.754;2024-01-30T10:42:31;2.20;;;2.10;;
16510;SDS011;8368;48.772;8.754;2024-01-30T10:45:07;2.20;;;2.00;;
16510;SDS011;8368;48.772;8.754;2024-01-30T10:47:40;1.63;;;1.60;;
16510;SDS011;8368;48.772;8.754;2024-01-30T10:50:08;4.10;;;2.20;;
16510;SDS011;8368;48.772;8.754;2024-01-30T10:52:35;2.53;;;2.20;;
16510;SDS011;8368;48.772;8.754;2024-01-30T10:55:01;2.33;;;2.13;;
16510;SDS011;8368;48.772;8.754;2024-01-30T10:57:31;3.50;;;2.23;;
16510;SDS011;8368;48.772;8.754;2024-01-30T10:59:59;2.80;;;2.30;;
16510;SDS011;8368;48.772;8.754;2024-01-30T11:02:30;3.43;;;2.50;;
16510;SDS011;8368;48.772;8.754;2024-01-30T11:04:57;2.30;;;2.20;;
16510;SDS011;8368;48.772;8.754;2024-01-30T11:07:24;4.10;;;2.40;;
16510;SDS011;8368;48.772;8.754;2024-01-30T11:09:59;3.27;;;2.67;;
16510;SDS011;8368;48.772;8.754;2024-01-30T11:12:29;2.00;;;1.90;;
16510;SDS011;8368;48.772;8.754;2024-01-30T11:15:01;2.37;;;2.27;;
16510;SDS011;8368;48.772;8.754;2024-01-30T11:20:14;2.10;;;2.00;;
16510;SDS011;8368;48.772;8.754;2024-01-30T11:22:44;2.50;;;2.30;;
16510;SDS011;8368;48.772;8.754;2024-01-30T11:25:15;3.63;;;2.10;;
16510;SDS011;8368;48.772;8.754;2024-01-30T11:27:42;3.03;;;2.40;;
16510;SDS011;8368;48.772;8.754;2024-01-30T11:30:08;2.80;;;2.50;;
16510;SDS011;8368;48.772;8.754;2024-01-30T11:32:34;2.57;;;2.37;;
16510;SDS011;8368;48.772;8.754;2024-01-30T11:35:00;2.30;;;2.20;;
16510;SDS011;8368;48.772;8.754;2024-01-30T11:37:30;3.20;;;2.30;;
16510;SDS011;8368;48.772;8.754;2024-01-30T11:39:56;2.40;;;2.30;;
16510;SDS011;8368;48.772;8.754;2024-01-30T11:42:23;4.90;;;2.87;;
16510;SDS011;8368;48.772;8.754;2024-01-30T11:44:52;3.67;;;2.53;;
16510;SDS011;8368;48.772;8.754;2024-01-30T11:47:18;2.73;;;2.53;;
16510;SDS011;8368;48.772;8.754;2024-01-30T11:49:43;3.45;;;2.40;;
16510;SDS011;8368;48.772;8.754;2024-01-30T11:52:09;2.27;;;2.13;;
16510;SDS011;8368;48.772;8.754;2024-01-30T11:54:35;2.43;;;2.30;;
16510;SDS011;8368;48.772;8.754;2024-01-30T11:57:04;2.00;;;1.90;;
16510;SDS011;8368;48.772;8.754;2024-01-30T11:59:30;3.13;;;2.53;;
16510;SDS011;8368;48.772;8.754;2024-01-30T12:01:55;2.97;;;2.40;;
16510;SDS011;8368;48.772;8.754;2024-01-30T12:04:21;2.27;;;2.17;;
16510;SDS011;8368;48.772;8.754;2024-01-30T12:06:50;3.17;;;2.70;;
16510;SDS011;8368;48.772;8.754;2024-01-30T12:09:16;2.40;;;2.30;;
16510;SDS011;8368;48.772;8.754;2024-01-30T12:11:45;2.77;;;2.57;;
16510;SDS011;8368;48.772;8.754;2024-01-30T12:14:12;2.67;;;2.30;;
16510;SDS011;8368;48.772;8.754;2024-01-30T12:16:38;2.77;;;2.60;;
16510;SDS011;8368;48.772;8.754;2024-01-30T12:19:03;2.60;;;2.40;;
16510;SDS011;8368;48.772;8.754;2024-01-30T12:21:29;2.30;;;2.10;;
16510;SDS011;8368;48.772;8.754;2024-01-30T12:23:56;2.73;;;2.53;;
16510;SDS011;8368;48.772;8.754;2024-01-30T12:26:23;2.97;;;2.77;;
16510;SDS011;8368;48.772;8.754;2024-01-30T12:28:50;2.80;;;2.60;;
16510;SDS011;8368;48.772;8.754;2024-01-30T12:31:19;2.77;;;2.40;;
16510;SDS011;8368;48.772;8.754;2024-01-30T12:33:51;2.47;;;2.20;;
16510;SDS011;8368;48.772;8.754;2024-01-30T12:36:17;2.87;;;2.50;;
16510;SDS011;8368;48.772;8.754;2024-01-30T12:38:43;2.80;;;2.30;;
16510;SDS011;8368;48.772;8.754;2024-01-30T12:41:08;2.80;;;2.50;;
16510;SDS011;8368;48.772;8.754;2024-01-30T12:43:34;3.93;;;2.40;;
16510;SDS011;8368;48.772;8.754;2024-01-30T12:46:00;2.60;;;2.40;;
16510;SDS011;8368;48.772;8.754;2024-01-30T12:48:26;2.43;;;2.33;;
16510;SDS011;8368;48.772;8.754;2024-01-30T12:50:54;2.50;;;2.40;;
16510;SDS011;8368;48.772;8.754;2024-01-30T12:53:19;2.90;;;2.70;;
16510;SDS011;8368;48.772;8.754;2024-01-30T12:55:45;2.50;;;2.30;;
16510;SDS011;8368;48.772;8.754;2024-01-30T12:58:10;2.70;;;2.50;;
16510;SDS011;8368;48.772;8.754;2024-01-30T13:00:36;2.57;;;2.23;;
16510;SDS011;8368;48.772;8.754;2024-01-30T13:03:01;4.57;;;2.23;;
16510;SDS011;8368;48.772;8.754;2024-01-30T13:05:27;2.57;;;2.43;;
16510;SDS011;8368;48.772;8.754;2024-01-30T13:07:53;2.30;;;2.20;;
16510;SDS011;8368;48.772;8.754;2024-01-30T13:10:18;2.60;;;2.40;;
16510;SDS011;8368;48.772;8.754;2024-01-30T13:12:44;4.50;;;2.30;;
16510;SDS011;8368;48.772;8.754;2024-01-30T13:15:09;3.03;;;2.50;;
16510;SDS011;8368;48.772;8.754;2024-01-30T13:17:36;3.87;;;2.90;;
16510;SDS011;8368;48.772;8.754;2024-01-30T13:20:02;2.80;;;2.60;;
16510;SDS011;8368;48.772;8.754;2024-01-30T13:22:29;5.70;;;2.67;;
16510;SDS011;8368;48.772;8.754;2024-01-30T13:24:54;3.00;;;2.73;;
16510;SDS011;8368;48.772;8.754;2024-01-30T13:27:20;2.57;;;2.47;;
16510;SDS011;8368;48.772;8.754;2024-01-30T13:29:46;2.60;;;2.43;;
16510;SDS011;8368;48.772;8.754;2024-01-30T13:32:11;3.10;;;2.40;;
16510;SDS011;8368;48.772;8.754;2024-01-30T13:34:37;3.40;;;2.43;;
16510;SDS011;8368;48.772;8.754;2024-01-30T13:37:02;2.50;;;2.30;;
16510;SDS011;8368;48.772;8.754;2024-01-30T13:39:28;2.60;;;2.30;;
16510;SDS011;8368;48.772;8.754;2024-01-30T13:41:54;2.50;;;2.23;;
16510;SDS011;8368;48.772;8.754;2024-01-30T13:44:19;2.57;;;2.37;;
16510;SDS011;8368;48.772;8.754;2024-01-30T13:46:45;2.73;;;2.53;;
16510;SDS011;8368;48.772;8.754;2024-01-30T13:49:11;2.43;;;2.33;;
16510;SDS011;8368;48.772;8.754;2024-01-30T13:51:37;2.53;;;2.40;;
16510;SDS011;8368;48.772;8.754;2024-01-30T13:54:02;3.40;;;2.23;;
16510;SDS011;8368;48.772;8.754;2024-01-30T13:56:28;2.77;;;2.50;;
16510;SDS011;8368;48.772;8.754;2024-01-30T13:58:55;2.40;;;2.30;;
16510;SDS011;8368;48.772;8.754;2024-01-30T14:01:21;2.90;;;2.70;;
16510;SDS011;8368;48.772;8.754;2024-01-30T14:03:47;5.33;;;2.53;;
16510;SDS011;8368;48.772;8.754;2024-01-30T14:06:13;2.70;;;2.50;;
16510;SDS011;8368;48.772;8.754;2024-01-30T14:08:39;3.20;;;2.90;;
16510;SDS011;8368;48.772;8.754;2024-01-30T14:11:04;2.57;;;2.47;;
16510;SDS011;8368;48.772;8.754;2024-01-30T14:13:30;2.60;;;2.40;;
16510;SDS011;8368;48.772;8.754;2024-01-30T14:15:57;3.70;;;2.67;;
16510;SDS011;8368;48.772;8.754;2024-01-30T14:18:23;3.03;;;2.57;;
16510;SDS011;8368;48.772;8.754;2024-01-30T14:20:50;2.80;;;2.60;;
16510;SDS011;8368;48.772;8.754;2024-01-30T14:23:17;5.40;;;2.73;;
16510;SDS011;8368;48.772;8.754;2024-01-30T14:25:42;2.53;;;2.30;;
16510;SDS011;8368;48.772;8.754;2024-01-30T14:28:08;2.60;;;2.43;;
16510;SDS011;8368;48.772;8.754;2024-01-30T14:30:33;3.00;;;2.80;;
16510;SDS011;8368;48.772;8.754;2024-01-30T14:33:00;2.40;;;2.23;;
16510;SDS011;8368;48.772;8.754;2024-01-30T14:35:27;2.73;;;2.10;;
16510;SDS011;8368;48.772;8.754;2024-01-30T14:37:52;2.60;;;2.40;;
16510;SDS011;8368;48.772;8.754;2024-01-30T14:40:18;2.97;;;2.77;;
16510;SDS011;8368;48.772;8.754;2024-01-30T14:42:44;2.20;;;2.10;;
16510;SDS011;8368;48.772;8.754;2024-01-30T14:45:10;2.47;;;2.37;;
16510;SDS011;8368;48.772;8.754;2024-01-30T14:47:36;2.70;;;2.50;;
16510;SDS011;8368;48.772;8.754;2024-01-30T14:50:02;2.83;;;2.63;;
16510;SDS011;8368;48.772;8.754;2024-01-30T14:52:30;3.47;;;3.10;;
16510;SDS011;8368;48.772;8.754;2024-01-30T14:54:56;3.00;;;2.50;;